Sherman, Nebraska
Current Conditions -  °F | °C
As of 1:15 AM on Saturday 29 Nov 2014 (Local Time) from KHDE Reporting Station
Clear Clear  
Wind Chill:   Ceiling: Unl
Heat Index:   Visibility: 10mi
Dew Point: -11°   Wind: 0mph
Humidity: 26%   Direction: NA
Pressure: 29.61"   Gusts: NA
Location:  40.3942°N, 99.1223°W
Report Text: KHDE 290715Z AUTO 00000KT 10SM CLR 08/M11 A2961 RMK AO2 T00791106
Loading
Personal Weather Stations






























Interactive Weather Map New forecast layout! Learn more

10-Day Weather Forecast

Advertisements
Track Severe Weather on mobile